createdAt,value
2023-05-11T00:01:28.568Z,10.65
2023-05-11T00:03:56.288Z,10.58
2023-05-11T00:06:23.195Z,10.62
2023-05-11T00:08:49.996Z,10.53
2023-05-11T00:11:18.554Z,10.49
2023-05-11T00:13:45.833Z,10.42
2023-05-11T00:16:12.925Z,10.44
2023-05-11T00:18:39.587Z,10.31
2023-05-11T00:21:06.276Z,10.27
2023-05-11T00:23:32.960Z,10.19
2023-05-11T00:25:59.625Z,10.24
2023-05-11T00:28:26.255Z,10.20
2023-05-11T00:30:57.529Z,10.21
2023-05-11T00:33:24.486Z,10.09
2023-05-11T00:35:51.895Z,10.16
2023-05-11T00:38:18.641Z,9.99
2023-05-11T00:40:45.511Z,9.97
2023-05-11T00:43:12.229Z,9.91
2023-05-11T00:45:39.907Z,9.92
2023-05-11T00:48:06.987Z,9.99
2023-05-11T00:50:34.557Z,9.94
2023-05-11T00:53:01.508Z,9.91
2023-05-11T00:55:28.618Z,10.03
2023-05-11T00:57:55.513Z,10.04
2023-05-11T01:00:22.263Z,10.16
2023-05-11T01:02:49.214Z,10.13
2023-05-11T01:05:16.375Z,10.14
2023-05-11T01:08:05.606Z,10.13
2023-05-11T01:10:54.044Z,9.98
2023-05-11T01:13:43.220Z,10.12
2023-05-11T01:16:17.446Z,10.04
2023-05-11T01:18:46.926Z,10.07
2023-05-11T01:21:15.924Z,10.00
2023-05-11T01:24:00.954Z,10.06
2023-05-11T01:26:58.630Z,9.99
2023-05-11T01:29:47.705Z,10.02
2023-05-11T01:32:26.402Z,10.11
2023-05-11T01:35:01.587Z,10.12
2023-05-11T01:37:31.761Z,10.02
2023-05-11T01:40:01.672Z,10.05
2023-05-11T01:42:36.859Z,10.09
2023-05-11T01:45:04.781Z,9.98
2023-05-11T01:47:32.016Z,9.95
2023-05-11T01:50:00.918Z,9.88
2023-05-11T01:52:28.159Z,10.02
2023-05-11T01:54:55.478Z,9.84
2023-05-11T01:57:22.736Z,9.79
2023-05-11T01:59:50.283Z,9.88
2023-05-11T02:02:18.772Z,9.79
2023-05-11T02:04:46.000Z,9.70
2023-05-11T02:07:14.097Z,9.82
2023-05-11T02:09:41.075Z,9.75
2023-05-11T02:12:09.865Z,9.76
2023-05-11T02:14:37.012Z,9.65
2023-05-11T02:17:04.695Z,9.71
2023-05-11T02:19:34.469Z,9.81
2023-05-11T02:22:01.691Z,9.73
2023-05-11T02:24:29.045Z,9.62
2023-05-11T02:26:56.865Z,9.64
2023-05-11T02:29:23.517Z,9.66
2023-05-11T02:31:55.579Z,9.59
2023-05-11T02:34:25.333Z,9.45
2023-05-11T02:36:54.534Z,9.69
2023-05-11T02:39:24.484Z,9.58
2023-05-11T02:41:56.357Z,9.64
2023-05-11T02:44:24.530Z,9.50
2023-05-11T02:46:52.764Z,9.53
2023-05-11T02:49:21.303Z,9.50
2023-05-11T02:51:48.875Z,9.34
2023-05-11T02:54:16.106Z,9.30
2023-05-11T02:56:42.996Z,9.32
2023-05-11T02:59:10.604Z,9.27
2023-05-11T03:01:39.156Z,9.09
2023-05-11T03:04:06.132Z,9.18
2023-05-11T03:06:33.506Z,9.16
2023-05-11T03:09:01.392Z,9.10
2023-05-11T03:11:28.537Z,9.10
2023-05-11T03:13:55.506Z,9.05
2023-05-11T03:16:22.724Z,9.05
2023-05-11T03:18:49.910Z,9.14
2023-05-11T03:21:18.497Z,9.15
2023-05-11T03:23:46.037Z,8.99
2023-05-11T03:26:13.314Z,9.05
2023-05-11T03:28:40.888Z,8.92
2023-05-11T03:31:07.556Z,8.92
2023-05-11T03:33:34.275Z,8.89
2023-05-11T03:36:01.732Z,8.86
2023-05-11T03:38:29.399Z,8.91
2023-05-11T03:40:56.245Z,8.88
2023-05-11T03:43:23.014Z,9.03
2023-05-11T03:45:51.603Z,8.92
2023-05-11T03:48:18.738Z,8.86
2023-05-11T03:50:45.624Z,8.77
2023-05-11T03:53:12.766Z,8.85
2023-05-11T03:55:39.644Z,8.75
2023-05-11T03:58:10.270Z,8.85
2023-05-11T04:00:43.394Z,8.82
2023-05-11T04:03:10.116Z,8.83
2023-05-11T04:05:36.857Z,8.88
2023-05-11T04:08:04.364Z,8.73
2023-05-11T04:10:31.045Z,8.87
2023-05-11T04:12:57.807Z,8.79
2023-05-11T04:15:24.434Z,8.85
2023-05-11T04:17:51.149Z,8.88
2023-05-11T04:20:18.094Z,8.86
2023-05-11T04:22:44.979Z,8.90
2023-05-11T04:25:11.862Z,9.08
2023-05-11T04:27:38.472Z,9.20
2023-05-11T04:30:06.167Z,9.19
2023-05-11T04:32:32.871Z,9.21
2023-05-11T04:34:59.502Z,9.14
2023-05-11T04:37:26.257Z,9.22
2023-05-11T04:39:52.915Z,9.20
2023-05-11T04:42:19.578Z,9.11
2023-05-11T04:44:46.176Z,9.24
2023-05-11T04:47:12.848Z,9.23
2023-05-11T04:49:39.757Z,9.39
2023-05-11T04:52:06.464Z,9.37
2023-05-11T04:54:33.199Z,9.39
2023-05-11T04:56:59.830Z,9.65
2023-05-11T04:59:26.449Z,9.84
2023-05-11T05:01:53.193Z,10.02
2023-05-11T05:04:19.872Z,10.05
2023-05-11T05:06:46.672Z,10.10
2023-05-11T05:09:13.311Z,10.14
2023-05-11T05:11:39.956Z,10.17
2023-05-11T05:14:06.569Z,10.30
2023-05-11T05:16:33.254Z,10.51
2023-05-11T05:19:00.192Z,10.77
2023-05-11T05:21:26.875Z,11.00
2023-05-11T05:23:53.468Z,11.23
2023-05-11T05:26:20.160Z,11.32
2023-05-11T05:28:46.760Z,11.39
2023-05-11T05:31:13.421Z,11.45
2023-05-11T05:33:40.071Z,11.84
2023-05-11T05:36:06.900Z,12.14
2023-05-11T05:38:33.882Z,12.53
2023-05-11T05:41:00.825Z,12.73
2023-05-11T05:43:27.665Z,12.84
2023-05-11T05:45:54.398Z,12.82
2023-05-11T05:48:21.037Z,12.92
2023-05-11T05:50:47.793Z,13.12
2023-05-11T05:53:14.512Z,13.46
2023-05-11T05:55:41.138Z,13.71
2023-05-11T05:58:07.782Z,13.84
2023-05-11T06:00:35.766Z,14.16
2023-05-11T06:03:02.544Z,15.16
2023-05-11T06:05:29.301Z,16.33
2023-05-11T06:08:09.275Z,17.01
2023-05-11T06:10:37.826Z,18.33
2023-05-11T06:13:04.768Z,18.69
2023-05-11T06:15:31.539Z,18.40
2023-05-11T06:17:58.255Z,18.41
2023-05-11T06:20:25.004Z,18.55
2023-05-11T06:22:51.636Z,18.86
2023-05-11T06:25:18.280Z,18.78
2023-05-11T06:27:44.902Z,19.13
2023-05-11T06:30:11.764Z,19.00
2023-05-11T06:32:38.456Z,18.96
2023-05-11T06:35:05.684Z,19.11
2023-05-11T06:37:32.368Z,19.07
2023-05-11T06:39:59.432Z,19.20
2023-05-11T06:42:26.067Z,18.96
2023-05-11T06:44:52.875Z,18.88
2023-05-11T06:47:19.681Z,18.50
2023-05-11T06:49:46.329Z,18.67
2023-05-11T06:52:13.014Z,18.75
2023-05-11T06:54:39.878Z,18.67
2023-05-11T06:57:06.554Z,18.70
2023-05-11T06:59:33.226Z,18.95
2023-05-11T07:01:59.896Z,19.05
2023-05-11T07:04:26.749Z,19.45
2023-05-11T07:06:53.491Z,19.71
2023-05-11T07:09:20.156Z,20.03
2023-05-11T07:11:46.825Z,20.33
2023-05-11T07:14:13.614Z,20.64
2023-05-11T07:16:40.319Z,20.87
2023-05-11T07:19:09.763Z,20.89
2023-05-11T07:21:36.845Z,20.95
2023-05-11T07:24:04.021Z,20.42
2023-05-11T07:26:30.810Z,20.78
2023-05-11T07:28:57.468Z,21.06
2023-05-11T07:31:24.238Z,20.70
2023-05-11T07:33:51.036Z,20.87
2023-05-11T07:36:18.401Z,21.29
2023-05-11T07:38:44.983Z,21.26
2023-05-11T07:41:12.687Z,21.31
2023-05-11T07:43:39.877Z,21.57
2023-05-11T07:46:06.591Z,21.47
2023-05-11T07:48:33.238Z,21.66
2023-05-11T07:51:00.889Z,21.11
2023-05-11T07:53:27.805Z,21.61
2023-05-11T07:55:54.431Z,21.79
2023-05-11T07:58:21.124Z,21.44
2023-05-11T08:00:47.807Z,21.77
2023-05-11T08:03:15.793Z,21.88
2023-05-11T08:05:42.571Z,22.03
2023-05-11T08:08:09.267Z,21.64
2023-05-11T08:10:36.335Z,22.33
2023-05-11T08:13:03.257Z,22.55
2023-05-11T08:15:30.035Z,22.08
2023-05-11T08:17:56.910Z,21.45
2023-05-11T08:20:23.701Z,21.85
2023-05-11T08:22:50.517Z,21.58
2023-05-11T08:25:17.459Z,22.17
2023-05-11T08:27:44.375Z,21.95
2023-05-11T08:30:11.959Z,21.92
2023-05-11T08:32:57.248Z,21.86
2023-05-11T08:35:25.462Z,22.31
2023-05-11T08:37:52.131Z,22.50
2023-05-11T08:40:20.323Z,22.87
2023-05-11T08:42:47.144Z,22.24
2023-05-11T08:45:13.807Z,22.45
2023-05-11T08:47:40.498Z,22.62
2023-05-11T08:50:07.657Z,22.23
2023-05-11T08:52:34.678Z,22.66
2023-05-11T08:55:01.354Z,22.94
2023-05-11T08:57:31.991Z,23.23
2023-05-11T09:00:00.461Z,23.06
2023-05-11T09:02:27.435Z,22.57
2023-05-11T09:04:54.530Z,23.17
2023-05-11T09:07:21.872Z,23.17
2023-05-11T09:09:48.568Z,23.52
2023-05-11T09:12:16.573Z,22.60
2023-05-11T09:14:43.769Z,22.47
2023-05-11T09:17:11.768Z,23.03
2023-05-11T09:19:57.230Z,23.33
2023-05-11T09:22:24.311Z,23.35
2023-05-11T09:24:51.013Z,23.32
2023-05-11T09:27:21.350Z,23.89
2023-05-11T09:29:51.900Z,23.61
2023-05-11T09:32:18.856Z,22.82
2023-05-11T09:34:46.051Z,22.93
2023-05-11T09:37:18.203Z,23.21
2023-05-11T09:40:13.958Z,23.70
2023-05-11T09:42:31.729Z,24.01
2023-05-11T09:44:58.533Z,23.78
2023-05-11T09:47:25.347Z,24.00
2023-05-11T09:49:52.087Z,23.71
2023-05-11T09:52:21.040Z,23.74
2023-05-11T09:54:51.156Z,23.42
2023-05-11T09:57:31.146Z,23.88
2023-05-11T09:59:59.266Z,24.38
2023-05-11T10:02:31.108Z,23.87
2023-05-11T10:05:00.770Z,23.78
2023-05-11T10:07:28.477Z,22.89
2023-05-11T10:09:57.029Z,22.43
2023-05-11T10:12:25.885Z,23.07
2023-05-11T10:14:56.936Z,22.57
2023-05-11T10:17:25.453Z,22.79
2023-05-11T10:19:55.069Z,23.06
2023-05-11T10:22:22.525Z,22.84
2023-05-11T10:24:50.242Z,23.46
2023-05-11T10:27:17.126Z,23.71
2023-05-11T10:29:44.463Z,24.04
2023-05-11T10:32:12.011Z,23.66
2023-05-11T10:34:41.988Z,23.33
2023-05-11T10:37:10.808Z,22.74
2023-05-11T10:39:38.856Z,22.45
2023-05-11T10:42:27.424Z,22.40
2023-05-11T10:45:16.041Z,22.65
2023-05-11T10:48:09.002Z,23.25
2023-05-11T10:50:52.131Z,22.85
2023-05-11T10:53:54.192Z,22.97
2023-05-11T10:56:27.676Z,22.93
2023-05-11T10:59:15.685Z,22.91
2023-05-11T11:01:46.366Z,23.05
2023-05-11T11:04:14.366Z,23.67
2023-05-11T11:06:43.258Z,24.31
2023-05-11T11:09:15.803Z,24.71
2023-05-11T11:11:47.263Z,24.75
2023-05-11T11:14:16.009Z,24.49
2023-05-11T11:17:15.345Z,24.13
2023-05-11T11:19:42.722Z,24.05
2023-05-11T11:22:34.368Z,23.76
2023-05-11T11:25:11.537Z,23.20
2023-05-11T11:27:41.625Z,23.28
2023-05-11T11:30:22.124Z,22.72
2023-05-11T11:32:50.621Z,22.50
2023-05-11T11:35:39.408Z,22.47
2023-05-11T11:38:14.082Z,22.30
2023-05-11T11:40:50.473Z,22.01
2023-05-11T11:43:26.179Z,22.10
2023-05-11T11:45:57.535Z,21.90
2023-05-11T11:48:31.161Z,21.96
2023-05-11T11:51:14.115Z,21.74
2023-05-11T11:53:41.214Z,22.29
2023-05-11T11:56:29.263Z,23.08
2023-05-11T11:58:55.991Z,23.38
2023-05-11T12:01:26.979Z,23.79
2023-05-11T12:04:10.446Z,23.80
2023-05-11T12:06:39.616Z,23.69
2023-05-11T12:09:07.204Z,23.63
2023-05-11T12:11:34.645Z,23.05
2023-05-11T12:14:02.406Z,22.96
2023-05-11T12:16:29.588Z,22.62
2023-05-11T12:19:01.380Z,22.83
2023-05-11T12:21:31.773Z,22.73
2023-05-11T12:24:01.062Z,22.60
2023-05-11T12:26:29.478Z,22.38
2023-05-11T12:29:13.790Z,22.30
2023-05-11T12:31:42.703Z,22.27
2023-05-11T12:34:21.747Z,22.06
2023-05-11T12:36:53.556Z,22.04
2023-05-11T12:39:29.550Z,21.74
2023-05-11T12:41:56.964Z,21.69
2023-05-11T12:44:25.868Z,21.69
2023-05-11T12:46:52.781Z,21.50
2023-05-11T12:49:26.597Z,21.52
2023-05-11T12:52:00.152Z,21.53
2023-05-11T12:54:31.356Z,21.88
2023-05-11T12:56:58.275Z,21.88
2023-05-11T12:59:32.418Z,22.12
2023-05-11T13:02:11.035Z,22.37
2023-05-11T13:04:39.307Z,21.79
2023-05-11T13:07:06.486Z,22.43
2023-05-11T13:09:33.510Z,22.94
2023-05-11T13:12:21.223Z,23.36
2023-05-11T13:14:50.704Z,23.68
2023-05-11T13:17:31.548Z,23.66
2023-05-11T13:20:22.311Z,23.57
2023-05-11T13:22:49.852Z,23.63
2023-05-11T13:25:21.704Z,23.72
2023-05-11T13:27:48.598Z,23.76
2023-05-11T13:30:15.606Z,23.90
2023-05-11T13:32:42.394Z,23.56
2023-05-11T13:35:09.426Z,23.09
2023-05-11T13:37:36.278Z,23.29
2023-05-11T13:40:04.050Z,23.45
2023-05-11T13:42:30.907Z,23.33
2023-05-11T13:44:57.578Z,23.38
2023-05-11T13:47:24.464Z,23.47
2023-05-11T13:49:51.100Z,23.08
2023-05-11T13:52:17.710Z,23.09
2023-05-11T13:54:44.501Z,22.96
2023-05-11T13:57:11.185Z,22.59
2023-05-11T13:59:37.861Z,22.85
2023-05-11T14:02:04.737Z,22.65
2023-05-11T14:04:31.636Z,22.98
2023-05-11T14:06:58.830Z,23.10
2023-05-11T14:09:26.224Z,23.10
2023-05-11T14:11:52.944Z,23.07
2023-05-11T14:14:19.637Z,23.09
2023-05-11T14:16:46.351Z,23.06
2023-05-11T14:19:13.173Z,22.50
2023-05-11T14:21:39.935Z,22.87
2023-05-11T14:24:12.293Z,22.65
2023-05-11T14:26:40.576Z,22.68
2023-05-11T14:29:07.536Z,23.05
2023-05-11T14:31:35.894Z,23.27
2023-05-11T14:34:03.899Z,23.41
2023-05-11T14:36:30.639Z,23.83
2023-05-11T14:38:57.297Z,23.81
2023-05-11T14:41:23.971Z,23.91
2023-05-11T14:43:51.289Z,23.67
2023-05-11T14:46:18.184Z,23.59
2023-05-11T14:48:44.943Z,23.47
2023-05-11T14:51:11.580Z,23.35
2023-05-11T14:53:38.262Z,23.42
2023-05-11T14:56:05.215Z,23.46
2023-05-11T14:58:41.518Z,23.70
2023-05-11T15:01:08.326Z,23.34
2023-05-11T15:03:37.427Z,23.16
2023-05-11T15:06:04.668Z,23.55
2023-05-11T15:08:32.332Z,23.63
2023-05-11T15:10:59.048Z,23.31
2023-05-11T15:13:25.799Z,23.40
2023-05-11T15:15:52.724Z,23.67
2023-05-11T15:18:19.558Z,23.41
2023-05-11T15:20:46.424Z,23.43
2023-05-11T15:23:16.940Z,23.66
2023-05-11T15:25:47.247Z,23.27
2023-05-11T15:28:15.575Z,23.25
2023-05-11T15:30:43.403Z,23.26
2023-05-11T15:33:10.499Z,23.29
2023-05-11T15:35:37.926Z,23.08
2023-05-11T15:38:05.205Z,22.82
2023-05-11T15:40:32.474Z,22.54
2023-05-11T15:42:59.297Z,22.44
2023-05-11T15:45:26.150Z,22.36
2023-05-11T15:47:54.078Z,22.39
2023-05-11T15:50:21.227Z,22.08
2023-05-11T15:52:48.283Z,22.32
2023-05-11T15:55:15.043Z,22.26
2023-05-11T15:57:41.892Z,22.26
2023-05-11T16:00:10.625Z,22.25
2023-05-11T16:02:37.573Z,22.22
2023-05-11T16:05:04.641Z,22.00
2023-05-11T16:07:31.503Z,22.11
2023-05-11T16:09:58.179Z,21.79
2023-05-11T16:12:24.840Z,21.72
2023-05-11T16:14:51.498Z,21.70
2023-05-11T16:17:18.259Z,21.31
2023-05-11T16:19:44.956Z,21.41
2023-05-11T16:22:12.134Z,21.35
2023-05-11T16:24:38.848Z,21.13
2023-05-11T16:27:05.711Z,21.09
2023-05-11T16:29:32.401Z,21.32
2023-05-11T16:31:59.145Z,21.33
2023-05-11T16:34:27.004Z,21.29
2023-05-11T16:36:58.791Z,21.25
2023-05-11T16:39:25.873Z,21.23
2023-05-11T16:41:52.502Z,20.97
2023-05-11T16:44:19.141Z,20.91
2023-05-11T16:46:45.825Z,20.95
2023-05-11T16:49:12.553Z,20.98
2023-05-11T16:51:39.194Z,20.91
2023-05-11T16:54:05.800Z,20.83
2023-05-11T16:56:32.452Z,20.83
2023-05-11T16:58:59.169Z,20.83
2023-05-11T17:01:26.075Z,20.80
2023-05-11T17:03:52.886Z,20.78
2023-05-11T17:06:21.344Z,20.65
2023-05-11T17:08:48.028Z,20.46
2023-05-11T17:11:14.695Z,20.43
2023-05-11T17:13:41.410Z,20.45
2023-05-11T17:16:08.077Z,20.46
2023-05-11T17:18:34.956Z,20.26
2023-05-11T17:21:01.620Z,20.24
2023-05-11T17:23:28.629Z,20.01
2023-05-11T17:25:55.369Z,20.13
2023-05-11T17:28:22.248Z,20.07
2023-05-11T17:30:54.818Z,19.98
2023-05-11T17:33:21.630Z,19.93
2023-05-11T17:35:48.307Z,19.77
2023-05-11T17:38:15.008Z,19.74
2023-05-11T17:40:41.673Z,19.61
2023-05-11T17:43:08.302Z,19.63
2023-05-11T17:45:35.090Z,19.66
2023-05-11T17:48:01.789Z,19.56
2023-05-11T17:50:28.633Z,19.43
2023-05-11T17:52:55.312Z,19.45
2023-05-11T17:55:22.222Z,19.40
2023-05-11T17:57:51.519Z,19.41
2023-05-11T18:00:18.675Z,19.46
2023-05-11T18:02:48.892Z,19.44
2023-05-11T18:05:16.236Z,19.30
2023-05-11T18:07:43.005Z,19.30
2023-05-11T18:10:11.006Z,19.23
2023-05-11T18:12:37.861Z,19.16
2023-05-11T18:15:05.015Z,19.26
2023-05-11T18:17:31.854Z,19.11
2023-05-11T18:19:58.522Z,18.99
2023-05-11T18:22:25.244Z,18.86
2023-05-11T18:24:52.025Z,18.88
2023-05-11T18:27:18.647Z,18.80
2023-05-11T18:29:45.434Z,18.66
2023-05-11T18:32:12.045Z,18.65
2023-05-11T18:34:41.335Z,18.44
2023-05-11T18:37:09.110Z,18.44
2023-05-11T18:39:36.104Z,18.24
2023-05-11T18:42:02.794Z,18.19
2023-05-11T18:44:29.462Z,18.13
2023-05-11T18:46:56.184Z,17.93
2023-05-11T18:49:23.029Z,17.81
2023-05-11T18:51:52.837Z,17.74
2023-05-11T18:54:23.540Z,17.81
2023-05-11T18:56:50.455Z,17.69
2023-05-11T18:59:18.351Z,17.38
2023-05-11T19:01:47.923Z,17.54
2023-05-11T19:04:17.759Z,17.33
2023-05-11T19:06:44.612Z,17.19
2023-05-11T19:09:11.275Z,17.08
2023-05-11T19:11:37.997Z,16.95
2023-05-11T19:14:04.749Z,16.82
2023-05-11T19:16:32.838Z,16.77
2023-05-11T19:18:59.697Z,16.70
2023-05-11T19:21:26.565Z,16.65
2023-05-11T19:23:53.280Z,16.56
2023-05-11T19:26:19.946Z,16.50
2023-05-11T19:28:46.630Z,16.48
2023-05-11T19:31:13.470Z,16.37
2023-05-11T19:33:40.131Z,16.16
2023-05-11T19:36:07.292Z,16.19
2023-05-11T19:38:35.902Z,16.10
2023-05-11T19:41:03.962Z,15.97
2023-05-11T19:43:31.376Z,15.92
2023-05-11T19:45:58.869Z,15.78
2023-05-11T19:48:25.877Z,15.74
2023-05-11T19:50:54.802Z,15.71
2023-05-11T19:53:25.245Z,15.66
2023-05-11T19:55:55.144Z,15.69
2023-05-11T19:58:23.336Z,15.59
2023-05-11T20:00:50.164Z,15.57
2023-05-11T20:03:17.188Z,15.52
2023-05-11T20:05:44.307Z,15.47
2023-05-11T20:08:13.295Z,15.44
2023-05-11T20:10:40.194Z,15.46
2023-05-11T20:13:08.172Z,15.51
2023-05-11T20:15:35.097Z,15.48
2023-05-11T20:18:04.620Z,15.52
2023-05-11T20:20:32.013Z,15.53
2023-05-11T20:23:02.386Z,15.47
2023-05-11T20:25:29.108Z,15.39
2023-05-11T20:27:56.012Z,15.33
2023-05-11T20:30:23.041Z,15.29
2023-05-11T20:35:19.704Z,15.32
2023-05-11T20:37:48.182Z,15.31
2023-05-11T20:40:14.851Z,15.25
2023-05-11T20:42:41.512Z,15.16
2023-05-11T20:45:08.991Z,15.16
2023-05-11T20:47:35.654Z,15.23
2023-05-11T20:50:02.566Z,15.15
2023-05-11T20:52:30.096Z,15.14
2023-05-11T20:54:56.901Z,15.08
2023-05-11T20:57:23.614Z,15.03
2023-05-11T21:02:20.346Z,14.94
2023-05-11T21:04:47.104Z,14.77
2023-05-11T21:07:14.296Z,14.73
2023-05-11T21:09:44.646Z,14.74
2023-05-11T21:12:11.635Z,14.81
2023-05-11T21:14:38.465Z,14.70
2023-05-11T21:17:10.903Z,14.78
2023-05-11T21:19:37.668Z,14.71
2023-05-11T21:22:05.044Z,14.53
2023-05-11T21:24:32.726Z,14.45
2023-05-11T21:27:00.889Z,14.36
2023-05-11T21:29:32.812Z,14.25
2023-05-11T21:31:59.531Z,14.37
2023-05-11T21:34:26.264Z,14.22
2023-05-11T21:36:53.753Z,14.32
2023-05-11T21:39:20.453Z,14.23
2023-05-11T21:41:48.056Z,14.15
2023-05-11T21:44:15.939Z,14.07
2023-05-11T21:46:42.733Z,14.18
2023-05-11T21:49:09.874Z,14.17
2023-05-11T21:51:36.950Z,14.30
2023-05-11T21:54:11.547Z,14.15
2023-05-11T21:56:38.220Z,14.24
2023-05-11T21:59:04.952Z,14.23
2023-05-11T22:01:31.667Z,14.27
2023-05-11T22:04:01.106Z,14.18
2023-05-11T22:06:30.164Z,14.15
2023-05-11T22:08:58.989Z,14.11
2023-05-11T22:11:25.765Z,14.05
2023-05-11T22:13:52.437Z,14.00
2023-05-11T22:16:19.153Z,13.92
2023-05-11T22:18:45.884Z,13.93
2023-05-11T22:21:15.927Z,13.82
2023-05-11T22:23:42.586Z,13.67
2023-05-11T22:26:09.368Z,13.56
2023-05-11T22:28:36.089Z,13.51
2023-05-11T22:31:04.734Z,13.52
2023-05-11T22:33:31.461Z,13.37
2023-05-11T22:36:00.562Z,13.23
2023-05-11T22:38:27.360Z,13.28
2023-05-11T22:40:53.973Z,13.14
2023-05-11T22:43:20.797Z,13.08
2023-05-11T22:45:48.256Z,13.18
2023-05-11T22:48:14.929Z,13.02
2023-05-11T22:50:46.719Z,12.93
2023-05-11T22:53:19.173Z,12.90
2023-05-11T22:55:45.817Z,13.02
2023-05-11T22:58:14.316Z,13.07
2023-05-11T23:00:43.183Z,12.81
2023-05-11T23:03:13.010Z,12.85
2023-05-11T23:05:39.804Z,12.74
2023-05-11T23:08:07.979Z,12.76
2023-05-11T23:10:34.637Z,12.59
2023-05-11T23:13:01.323Z,12.66
2023-05-11T23:15:30.876Z,12.69
2023-05-11T23:17:58.060Z,12.65
2023-05-11T23:20:24.794Z,12.53
2023-05-11T23:22:51.451Z,12.52
2023-05-11T23:25:18.183Z,12.54
2023-05-11T23:27:44.830Z,12.58
2023-05-11T23:30:12.125Z,12.51
2023-05-11T23:32:41.134Z,12.53
2023-05-11T23:35:08.587Z,12.59
2023-05-11T23:37:35.220Z,12.44
2023-05-11T23:40:02.110Z,12.42
2023-05-11T23:42:29.516Z,12.36
2023-05-11T23:44:56.685Z,12.57
2023-05-11T23:47:23.621Z,12.56
2023-05-11T23:49:50.290Z,12.48
2023-05-11T23:52:17.038Z,12.55
2023-05-11T23:54:43.653Z,12.52
2023-05-11T23:57:10.498Z,12.60
2023-05-11T23:59:37.158Z,12.56
